Time;durP1;ratioP1;P1;durP2;ratioP2;P2;SDS_P1;SDS_P2;PMS_P1;PMS_P2;Temp;Humidity;BMP_temperature;BMP_pressure;BME280_temperature;BME280_humidity;BME280_pressure;Samples;Min_cycle;Max_cycle;Signal;HPM_P1;HPM_P2
2022/12/08 00:01:13;;;;;;;29.53;28.03;;;;;;;-141.22;100.00;65034.22;5032683;28;20436;-46
2022/12/08 00:03:41;;;;;;;29.77;28.47;;;;;;;-141.22;100.00;65034.22;5031817;28;20502;-48
2022/12/08 00:09:21;;;;;;;29.90;28.50;;;;;;;-141.22;100.00;65034.22;5032453;28;20471;-49
2022/12/08 00:11:53;;;;;;;29.93;28.33;;;;;;;-141.22;100.00;65034.22;5032067;28;20460;-47
2022/12/08 00:14:23;;;;;;;30.97;29.17;;;;;;;-141.22;100.00;65034.22;5032075;28;20438;-47
2022/12/08 00:16:51;;;;;;;29.90;28.40;;;;;;;-141.22;100.00;65034.22;5032050;28;20491;-47
2022/12/08 00:19:19;;;;;;;29.27;27.83;;;;;;;-141.22;100.00;65034.22;5032287;28;20475;-50
2022/12/08 00:21:48;;;;;;;29.10;27.23;;;;;;;-141.22;100.00;65034.22;5031801;28;20456;-47
2022/12/08 00:24:17;;;;;;;29.97;28.63;;;;;;;-141.22;100.00;65034.22;5031917;28;20443;-50
2022/12/08 00:26:45;;;;;;;29.57;28.07;;;;;;;-141.22;100.00;65034.22;5032231;28;20794;-45
2022/12/08 00:29:13;;;;;;;29.17;27.87;;;;;;;-141.22;100.00;65034.22;5032006;28;20432;-45
2022/12/08 00:31:44;;;;;;;28.87;27.33;;;;;;;-141.22;100.00;65034.22;5031600;28;20829;-47
2022/12/08 00:34:12;;;;;;;28.17;26.97;;;;;;;-141.22;100.00;65034.22;5031917;28;20432;-47
2022/12/08 00:36:40;;;;;;;29.37;28.17;;;;;;;-141.22;100.00;65034.22;5031837;28;20463;-47
2022/12/08 00:39:13;;;;;;;29.30;28.10;;;;;;;-141.22;100.00;65034.22;5031840;28;20459;-49
2022/12/08 00:44:26;;;;;;;28.60;27.40;;;;;;;-141.22;100.00;65034.22;5031889;28;20795;-48
2022/12/08 00:46:54;;;;;;;27.83;26.50;;;;;;;-141.22;100.00;65034.22;5031849;28;20467;-49
2022/12/08 00:49:22;;;;;;;27.90;26.73;;;;;;;-141.22;100.00;65034.22;5032015;28;20428;-47
2022/12/08 00:51:50;;;;;;;27.40;26.13;;;;;;;-141.22;100.00;65034.22;5031528;28;20463;-46
2022/12/08 00:54:19;;;;;;;27.57;26.47;;;;;;;-141.22;100.00;65034.22;5031486;28;20565;-48
2022/12/08 00:56:47;;;;;;;28.30;26.80;;;;;;;-141.22;100.00;65034.22;5015593;28;20463;-47
2022/12/08 00:59:14;;;;;;;27.17;26.00;;;;;;;-141.22;100.00;65034.22;5012109;28;20429;-47
2022/12/08 01:01:44;;;;;;;27.47;26.17;;;;;;;-141.22;100.00;65034.22;5011637;28;20440;-47
2022/12/08 01:04:14;;;;;;;28.83;27.63;;;;;;;-141.22;100.00;65034.22;5011596;28;20483;-47
2022/12/08 01:06:43;;;;;;;27.80;26.60;;;;;;;-141.22;100.00;65034.22;5011900;28;20449;-46
2022/12/08 01:09:13;;;;;;;26.83;25.80;;;;;;;-141.22;100.00;65034.22;5011780;28;20437;-46
2022/12/08 01:11:43;;;;;;;29.03;27.83;;;;;;;-141.22;100.00;65034.22;5011558;28;20433;-47
2022/12/08 01:14:11;;;;;;;27.40;26.20;;;;;;;-141.22;100.00;65034.22;5011859;28;20429;-46
2022/12/08 01:16:40;;;;;;;27.80;26.70;;;;;;;-141.22;100.00;65034.22;5011823;28;20496;-48
2022/12/08 01:19:09;;;;;;;29.20;27.90;;;;;;;-141.22;100.00;65034.22;5011825;28;20444;-47
2022/12/08 01:21:37;;;;;;;29.90;28.57;;;;;;;-141.22;100.00;65034.22;5011312;28;20433;-47
2022/12/08 01:24:06;;;;;;;30.53;28.93;;;;;;;-141.22;100.00;65034.22;5011731;28;20921;-45
2022/12/08 01:26:33;;;;;;;27.73;26.43;;;;;;;-141.22;100.00;65034.22;5011725;28;20464;-49
2022/12/08 01:29:02;;;;;;;27.30;26.10;;;;;;;-141.22;100.00;65034.22;5011869;28;20938;-46
2022/12/08 01:31:30;;;;;;;29.40;28.13;;;;;;;-141.22;100.00;65034.22;5011377;28;20845;-46
2022/12/08 01:33:58;;;;;;;28.37;27.07;;;;;;;-141.22;100.00;65034.22;5011296;28;20437;-45
2022/12/08 01:36:28;;;;;;;28.57;27.33;;;;;;;-141.22;100.00;65034.22;5011900;28;20449;-47
2022/12/08 01:38:58;;;;;;;30.17;28.70;;;;;;;-141.22;100.00;65034.22;5011584;28;20931;-46
2022/12/08 01:41:27;;;;;;;30.67;28.70;;;;;;;-141.22;100.00;65034.22;5011636;28;20483;-48
2022/12/08 01:43:59;;;;;;;28.90;27.60;;;;;;;-141.22;100.00;65034.22;5011156;28;20433;-46
2022/12/08 01:46:34;;;;;;;30.73;29.00;;;;;;;-141.22;100.00;65034.22;5011377;28;20461;-47
2022/12/08 01:49:05;;;;;;;31.87;30.17;;;;;;;-141.22;100.00;65034.22;5011803;28;20801;-49
2022/12/08 01:51:38;;;;;;;34.60;32.37;;;;;;;-141.22;100.00;65034.22;5011779;28;21101;-46
2022/12/08 01:54:06;;;;;;;33.57;31.60;;;;;;;-141.22;100.00;65034.22;5015039;28;20508;-47
2022/12/08 01:56:40;;;;;;;32.40;30.33;;;;;;;-141.22;100.00;65034.22;5017155;28;20984;-49
2022/12/08 01:59:07;;;;;;;33.50;31.50;;;;;;;-141.22;100.00;65034.22;5033849;28;20431;-45
2022/12/08 02:01:37;;;;;;;33.67;31.67;;;;;;;-141.22;100.00;65034.22;5034382;28;20486;-48
2022/12/08 02:04:05;;;;;;;35.00;32.70;;;;;;;-141.22;100.00;65034.22;5034617;28;20436;-49
2022/12/08 02:06:37;;;;;;;33.10;31.27;;;;;;;-141.22;100.00;65034.22;5034644;28;20977;-45
2022/12/08 02:09:05;;;;;;;32.93;31.00;;;;;;;-141.22;100.00;65034.22;5034877;28;20442;-46
2022/12/08 02:11:33;;;;;;;32.73;30.83;;;;;;;-141.22;100.00;65034.22;5033935;28;20800;-46
2022/12/08 02:14:05;;;;;;;33.00;30.90;;;;;;;-141.22;100.00;65034.22;5034439;28;20439;-47
2022/12/08 02:16:42;;;;;;;32.43;30.53;;;;;;;-141.22;100.00;65034.22;5034623;28;20454;-48
2022/12/08 02:19:35;;;;;;;32.00;30.10;;;;;;;-141.22;100.00;65034.22;5034421;28;20794;-46
2022/12/08 02:22:11;;;;;;;31.50;29.40;;;;;;;-141.22;100.00;65034.22;5033757;28;20464;-47
2022/12/08 02:24:48;;;;;;;30.70;29.10;;;;;;;-141.22;100.00;65034.22;5034279;28;20440;-46
2022/12/08 02:27:42;;;;;;;30.10;28.47;;;;;;;-141.22;100.00;65034.22;5034314;28;20554;-45
2022/12/08 02:30:17;;;;;;;29.60;27.70;;;;;;;-141.22;100.00;65034.22;5032485;28;20470;-46
2022/12/08 02:33:24;;;;;;;28.73;27.20;;;;;;;-141.22;100.00;65034.22;5033820;28;20463;-46
2022/12/08 02:35:58;;;;;;;26.80;25.60;;;;;;;-141.22;100.00;65034.22;5034189;28;20440;-46
2022/12/08 02:38:38;;;;;;;27.57;26.17;;;;;;;-141.22;100.00;65034.22;5034076;28;20800;-45
2022/12/08 02:41:16;;;;;;;26.50;25.23;;;;;;;-141.22;100.00;65034.22;5034329;28;20472;-48
2022/12/08 02:43:47;;;;;;;25.70;24.60;;;;;;;-141.22;100.00;65034.22;5033446;28;20841;-47
2022/12/08 02:46:19;;;;;;;26.73;25.53;;;;;;;-141.22;100.00;65034.22;5033752;28;20460;-46
2022/12/08 02:48:48;;;;;;;26.47;24.80;;;;;;;-141.22;100.00;65034.22;5034110;28;20439;-46
2022/12/08 02:51:17;;;;;;;25.23;23.83;;;;;;;-141.22;100.00;65034.22;5033705;28;20805;-47
2022/12/08 02:53:46;;;;;;;25.30;24.30;;;;;;;-141.22;100.00;65034.22;5033119;28;20475;-45
2022/12/08 02:56:25;;;;;;;26.37;24.97;;;;;;;-141.22;100.00;65034.22;5021935;28;20457;-46
2022/12/08 02:59:10;;;;;;;25.83;24.83;;;;;;;-141.22;100.00;65034.22;5030966;28;20439;-46
2022/12/08 03:01:56;;;;;;;26.13;25.03;;;;;;;-141.22;100.00;65034.22;5033026;28;20541;-46
2022/12/08 03:04:34;;;;;;;27.90;26.50;;;;;;;-141.22;100.00;65034.22;5032549;28;20436;-46
2022/12/08 03:07:08;;;;;;;26.83;25.40;;;;;;;-141.22;100.00;65034.22;5033539;28;20462;-47
2022/12/08 03:09:42;;;;;;;25.90;24.70;;;;;;;-141.22;100.00;65034.22;5033480;28;20936;-46
2022/12/08 03:12:17;;;;;;;26.80;25.60;;;;;;;-141.22;100.00;65034.22;5032932;28;20470;-45
2022/12/08 03:14:49;;;;;;;27.37;26.17;;;;;;;-141.22;100.00;65034.22;5033370;28;20447;-46
2022/12/08 03:17:20;;;;;;;26.40;25.20;;;;;;;-141.22;100.00;65034.22;5033203;28;20554;-46
2022/12/08 03:19:49;;;;;;;24.93;23.93;;;;;;;-141.22;100.00;65034.22;5033421;28;20431;-46
2022/12/08 03:22:24;;;;;;;26.27;24.87;;;;;;;-141.22;100.00;65034.22;5032576;28;20479;-46
2022/12/08 03:24:53;;;;;;;25.20;24.20;;;;;;;-141.22;100.00;65034.22;5033023;28;20443;-47
2022/12/08 03:27:23;;;;;;;24.70;23.70;;;;;;;-141.22;100.00;65034.22;5033283;28;20459;-46
2022/12/08 03:29:53;;;;;;;25.57;24.47;;;;;;;-141.22;100.00;65034.22;5033156;28;20439;-48
2022/12/08 03:32:27;;;;;;;25.30;24.33;;;;;;;-141.22;100.00;65034.22;5032701;28;20464;-47
2022/12/08 03:34:57;;;;;;;26.60;25.50;;;;;;;-141.22;100.00;65034.22;5032668;28;20429;-45
2022/12/08 03:37:28;;;;;;;25.40;24.27;;;;;;;-141.22;100.00;65034.22;5032824;28;20444;-45
2022/12/08 03:39:55;;;;;;;25.83;24.63;;;;;;;-141.22;100.00;65034.22;5033059;28;20431;-45
2022/12/08 03:42:23;;;;;;;25.40;24.40;;;;;;;-141.22;100.00;65034.22;5032371;28;20460;-46
2022/12/08 03:44:50;;;;;;;25.20;24.20;;;;;;;-141.22;100.00;65034.22;5032620;28;20766;-47
2022/12/08 03:47:18;;;;;;;25.67;24.70;;;;;;;-141.22;100.00;65034.22;5032725;28;20464;-46
2022/12/08 03:49:46;;;;;;;25.40;24.30;;;;;;;-141.22;100.00;65034.22;5032756;28;20440;-47
2022/12/08 03:52:13;;;;;;;25.40;24.40;;;;;;;-141.22;100.00;65034.22;5032298;28;20467;-47
2022/12/08 03:54:42;;;;;;;25.43;24.13;;;;;;;-141.22;100.00;65034.22;5032389;28;20436;-45
2022/12/08 03:57:10;;;;;;;25.03;23.73;;;;;;;-141.22;100.00;65034.22;5016159;28;20454;-46
2022/12/08 03:59:38;;;;;;;27.20;25.90;;;;;;;-141.22;100.00;65034.22;5032649;28;20437;-46
2022/12/08 04:02:06;;;;;;;24.67;23.60;;;;;;;-141.22;100.00;65034.22;5031864;28;21131;-47
2022/12/08 04:04:33;;;;;;;25.57;24.23;;;;;;;-141.22;100.00;65034.22;5032084;28;20486;-49
2022/12/08 04:07:01;;;;;;;24.53;23.53;;;;;;;-141.22;100.00;65034.22;5032554;28;20456;-48
2022/12/08 04:09:29;;;;;;;25.27;24.27;;;;;;;-141.22;100.00;65034.22;5032375;28;20439;-46
2022/12/08 04:11:58;;;;;;;26.33;25.13;;;;;;;-141.22;100.00;65034.22;5031818;28;20452;-48
2022/12/08 04:14:25;;;;;;;26.30;25.20;;;;;;;-141.22;100.00;65034.22;5031978;28;20439;-46
2022/12/08 04:16:53;;;;;;;27.03;25.83;;;;;;;-141.22;100.00;65034.22;5032141;28;20460;-49
2022/12/08 04:19:20;;;;;;;27.37;25.97;;;;;;;-141.22;100.00;65034.22;5032354;28;20523;-49
2022/12/08 04:21:48;;;;;;;26.80;25.50;;;;;;;-141.22;100.00;65034.22;5031956;28;20849;-49
2022/12/08 04:24:16;;;;;;;26.97;25.87;;;;;;;-141.22;100.00;65034.22;5032006;28;20442;-47
2022/12/08 04:26:44;;;;;;;26.80;25.70;;;;;;;-141.22;100.00;65034.22;5031982;28;20464;-49
2022/12/08 04:29:13;;;;;;;27.70;26.50;;;;;;;-141.22;100.00;65034.22;5031903;28;20798;-48
2022/12/08 04:31:41;;;;;;;27.37;26.10;;;;;;;-141.22;100.00;65034.22;5031550;28;20428;-48
2022/12/08 04:34:09;;;;;;;26.30;25.10;;;;;;;-141.22;100.00;65034.22;5031936;28;20467;-45
2022/12/08 04:36:36;;;;;;;27.37;26.10;;;;;;;-141.22;100.00;65034.22;5031892;28;21121;-45
2022/12/08 04:39:04;;;;;;;27.50;26.40;;;;;;;-141.22;100.00;65034.22;5031910;28;20440;-46
2022/12/08 04:41:32;;;;;;;26.73;25.63;;;;;;;-141.22;100.00;65034.22;5031175;28;20498;-47
2022/12/08 04:43:59;;;;;;;28.70;27.40;;;;;;;-141.22;100.00;65034.22;5031804;28;20459;-46
2022/12/08 04:46:28;;;;;;;28.43;26.90;;;;;;;-141.22;100.00;65034.22;5031532;28;21004;-46
2022/12/08 04:48:56;;;;;;;31.60;30.10;;;;;;;-141.22;100.00;65034.22;5031675;28;20432;-47
2022/12/08 04:51:24;;;;;;;28.47;27.07;;;;;;;-141.22;100.00;65034.22;5030159;28;20927;-47
2022/12/08 04:53:51;;;;;;;26.90;25.70;;;;;;;-141.22;100.00;65034.22;5030047;28;20527;-47
2022/12/08 04:56:19;;;;;;;26.97;25.87;;;;;;;-141.22;100.00;65034.22;5018991;28;20806;-45
2022/12/08 04:58:47;;;;;;;27.23;26.00;;;;;;;-141.22;100.00;65034.22;5028299;28;20432;-48
2022/12/08 05:01:15;;;;;;;27.67;26.50;;;;;;;-141.22;100.00;65034.22;5031722;28;20424;-46
2022/12/08 05:03:44;;;;;;;27.47;26.27;;;;;;;-141.22;100.00;65034.22;5030858;28;20471;-48
2022/12/08 05:06:13;;;;;;;27.57;26.37;;;;;;;-141.22;100.00;65034.22;5031652;28;20463;-49
2022/12/08 05:08:41;;;;;;;27.83;26.53;;;;;;;-141.22;100.00;65034.22;5031439;28;20925;-46
2022/12/08 05:11:11;;;;;;;27.50;26.30;;;;;;;-141.22;100.00;65034.22;5031553;28;20450;-47
2022/12/08 05:13:39;;;;;;;27.83;26.47;;;;;;;-141.22;100.00;65034.22;5031011;28;21063;-48
2022/12/08 05:16:08;;;;;;;27.73;26.53;;;;;;;-141.22;100.00;65034.22;5031578;28;20458;-46
2022/12/08 05:18:37;;;;;;;27.97;26.73;;;;;;;-141.22;100.00;65034.22;5031548;28;20448;-49
2022/12/08 05:21:07;;;;;;;27.80;26.60;;;;;;;-141.22;100.00;65034.22;5031373;28;20424;-45
2022/12/08 05:23:34;;;;;;;27.97;26.67;;;;;;;-141.22;100.00;65034.22;5030788;28;20464;-49
2022/12/08 05:26:02;;;;;;;27.00;25.70;;;;;;;-141.22;100.00;65034.22;5031564;28;20798;-47
2022/12/08 05:28:30;;;;;;;29.23;27.40;;;;;;;-141.22;100.00;65034.22;5035472;28;20432;-46
2022/12/08 05:31:14;;;;;;;27.37;26.17;;;;;;;-141.22;100.00;65034.22;5035383;28;20431;-47
2022/12/08 05:33:43;;;;;;;28.23;27.00;;;;;;;-141.22;100.00;65034.22;5034552;28;20852;-45
2022/12/08 05:36:14;;;;;;;29.20;27.70;;;;;;;-141.22;100.00;65034.22;5035535;28;20439;-45
2022/12/08 05:38:44;;;;;;;27.30;26.10;;;;;;;-141.22;100.00;65034.22;5035483;28;20834;-48
2022/12/08 05:41:15;;;;;;;27.20;26.00;;;;;;;-141.22;100.00;65034.22;5035355;28;20431;-49
2022/12/08 05:43:43;;;;;;;26.97;25.87;;;;;;;-141.22;100.00;65034.22;5034293;28;20547;-45
2022/12/08 05:46:10;;;;;;;27.90;26.43;;;;;;;-141.22;100.00;65034.22;5034801;28;20432;-47
2022/12/08 05:48:39;;;;;;;28.47;27.17;;;;;;;-141.22;100.00;65034.22;5035123;28;20476;-45
2022/12/08 05:51:13;;;;;;;27.50;26.10;;;;;;;-141.22;100.00;65034.22;5035112;28;20427;-47
2022/12/08 05:53:42;;;;;;;28.03;26.67;;;;;;;-141.22;100.00;65034.22;5034220;28;20837;-48
2022/12/08 05:56:09;;;;;;;28.47;26.90;;;;;;;-141.22;100.00;65034.22;5023540;28;20433;-48
2022/12/08 05:58:39;;;;;;;28.30;27.00;;;;;;;-141.22;100.00;65034.22;5030213;28;20489;-48
2022/12/08 06:01:06;;;;;;;28.23;26.63;;;;;;;-141.22;100.00;65034.22;5034976;28;20435;-46
2022/12/08 06:03:34;;;;;;;28.00;26.70;;;;;;;-141.22;100.00;65034.22;5034015;28;20522;-47
2022/12/08 06:06:04;;;;;;;29.23;27.63;;;;;;;-141.22;100.00;65034.22;5034605;28;20435;-49
2022/12/08 06:08:31;;;;;;;29.53;28.00;;;;;;;-141.22;100.00;65034.22;5034591;28;20515;-45
2022/12/08 06:11:01;;;;;;;28.70;27.20;;;;;;;-141.22;100.00;65034.22;5034570;28;20486;-45
2022/12/08 06:13:28;;;;;;;27.47;26.23;;;;;;;-141.22;100.00;65034.22;5033811;28;20546;-47
2022/12/08 06:15:56;;;;;;;28.10;26.80;;;;;;;-141.22;100.00;65034.22;5034730;28;20519;-46
2022/12/08 06:18:24;;;;;;;29.73;28.17;;;;;;;-141.22;100.00;65034.22;5034590;28;20802;-46
2022/12/08 06:21:03;;;;;;;27.50;26.30;;;;;;;-141.22;100.00;65034.22;5034625;28;20427;-46
2022/12/08 06:23:31;;;;;;;30.73;28.83;;;;;;;-141.22;100.00;65034.22;5033503;28;20487;-46
2022/12/08 06:26:02;;;;;;;28.00;26.70;;;;;;;-141.22;100.00;65034.22;5034219;28;20442;-45
2022/12/08 06:28:30;;;;;;;28.77;27.40;;;;;;;-141.22;100.00;65034.22;5034290;28;20440;-47
2022/12/08 06:30:58;;;;;;;28.50;27.20;;;;;;;-141.22;100.00;65034.22;5034264;28;20440;-46
2022/12/08 06:33:26;;;;;;;29.47;27.70;;;;;;;-141.22;100.00;65034.22;5033367;28;20496;-46
2022/12/08 06:35:54;;;;;;;27.87;26.57;;;;;;;-141.22;100.00;65034.22;5034102;28;20436;-45
2022/12/08 06:38:22;;;;;;;28.50;27.10;;;;;;;-141.22;100.00;65034.22;5033982;28;20448;-45
2022/12/08 06:40:53;;;;;;;30.40;28.40;;;;;;;-141.22;100.00;65034.22;5034166;28;20861;-46
2022/12/08 06:43:22;;;;;;;31.00;29.20;;;;;;;-141.22;100.00;65034.22;5033258;28;20863;-46
2022/12/08 06:45:50;;;;;;;30.20;28.40;;;;;;;-141.22;100.00;65034.22;5033416;28;20440;-47
2022/12/08 06:48:19;;;;;;;30.13;28.40;;;;;;;-141.22;100.00;65034.22;5029393;28;20457;-46
2022/12/08 06:50:46;;;;;;;29.13;27.53;;;;;;;-141.22;100.00;65034.22;5013852;28;20926;-46
2022/12/08 06:53:15;;;;;;;30.70;29.00;;;;;;;-141.22;100.00;65034.22;5013232;28;20461;-47
2022/12/08 06:55:44;;;;;;;30.50;28.70;;;;;;;-141.22;100.00;65034.22;5023296;28;20967;-46
2022/12/08 06:58:29;;;;;;;28.10;26.40;;;;;;;-141.22;100.00;65034.22;5027468;28;20448;-47
2022/12/08 07:00:56;;;;;;;28.40;26.80;;;;;;;-141.22;100.00;65034.22;5033584;28;20459;-45
2022/12/08 07:03:24;;;;;;;28.00;26.50;;;;;;;-141.22;100.00;65034.22;5032929;28;21003;-45
2022/12/08 07:05:55;;;;;;;27.93;26.50;;;;;;;-141.22;100.00;65034.22;5033502;28;20444;-48
2022/12/08 07:08:30;;;;;;;29.53;27.70;;;;;;;-141.22;100.00;65034.22;5033541;28;20439;-48
2022/12/08 07:10:58;;;;;;;28.57;27.17;;;;;;;-141.22;100.00;65034.22;5033525;28;20486;-45
2022/12/08 07:13:25;;;;;;;30.67;28.93;;;;;;;-141.22;100.00;65034.22;5032694;28;20464;-47
2022/12/08 07:15:54;;;;;;;31.30;29.60;;;;;;;-141.22;100.00;65034.22;5033169;28;20436;-46
2022/12/08 07:18:22;;;;;;;30.50;28.80;;;;;;;-141.22;100.00;65034.22;5033650;28;20440;-49
2022/12/08 07:20:49;;;;;;;32.70;30.80;;;;;;;-141.22;100.00;65034.22;5033615;28;20439;-46
2022/12/08 07:23:17;;;;;;;35.77;33.73;;;;;;;-141.22;100.00;65034.22;5032525;28;21011;-46
2022/12/08 07:25:45;;;;;;;36.70;34.03;;;;;;;-141.22;100.00;65034.22;5033203;28;20802;-47
2022/12/08 07:28:12;;;;;;;33.73;31.93;;;;;;;-141.22;100.00;65034.22;5032876;28;20462;-47
2022/12/08 07:30:40;;;;;;;33.53;31.53;;;;;;;-141.22;100.00;65034.22;5032903;28;20436;-44
2022/12/08 07:33:09;;;;;;;32.50;30.80;;;;;;;-141.22;100.00;65034.22;5032588;28;20464;-47
2022/12/08 07:35:36;;;;;;;32.40;30.20;;;;;;;-141.22;100.00;65034.22;5033155;28;20440;-48
2022/12/08 07:38:04;;;;;;;33.03;31.30;;;;;;;-141.22;100.00;65034.22;5033196;28;20535;-47
2022/12/08 07:40:32;;;;;;;32.07;30.33;;;;;;;-141.22;100.00;65034.22;5032910;28;20428;-44
2022/12/08 07:42:59;;;;;;;32.40;30.33;;;;;;;-141.22;100.00;65034.22;5032392;28;20483;-44
2022/12/08 07:45:27;;;;;;;31.20;29.60;;;;;;;-141.22;100.00;65034.22;5032759;28;20436;-46
2022/12/08 07:47:58;;;;;;;30.47;28.87;;;;;;;-141.22;100.00;65034.22;5032561;28;20534;-46
2022/12/08 07:50:27;;;;;;;30.27;28.67;;;;;;;-141.22;100.00;65034.22;5032369;28;20432;-47
2022/12/08 07:52:55;;;;;;;31.23;29.53;;;;;;;-141.22;100.00;65034.22;5032128;28;20460;-45
2022/12/08 07:55:22;;;;;;;29.83;28.33;;;;;;;-141.22;100.00;65034.22;5027654;28;20957;-44
2022/12/08 07:57:50;;;;;;;29.90;28.43;;;;;;;-141.22;100.00;65034.22;5021315;28;20452;-44
2022/12/08 08:00:19;;;;;;;30.30;28.80;;;;;;;-141.22;100.00;65034.22;5032608;28;20428;-47
2022/12/08 08:02:47;;;;;;;30.50;28.50;;;;;;;-141.22;100.00;65034.22;5031892;28;20471;-47
2022/12/08 08:05:14;;;;;;;30.97;29.13;;;;;;;-141.22;100.00;65034.22;5032094;28;20435;-47
2022/12/08 08:07:45;;;;;;;32.20;30.20;;;;;;;-141.22;100.00;65034.22;5032035;28;20474;-45
2022/12/08 08:10:13;;;;;;;30.33;28.73;;;;;;;-141.22;100.00;65034.22;5032571;28;20436;-45
2022/12/08 08:12:40;;;;;;;30.43;28.90;;;;;;;-141.22;100.00;65034.22;5032090;28;20838;-45
2022/12/08 08:15:09;;;;;;;31.30;29.20;;;;;;;-141.22;100.00;65034.22;5032334;28;20515;-45
2022/12/08 08:17:38;;;;;;;31.87;30.07;;;;;;;-141.22;100.00;65034.22;5032138;28;20453;-48
2022/12/08 08:20:08;;;;;;;31.80;30.10;;;;;;;-141.22;100.00;65034.22;5032197;28;20440;-50
2022/12/08 08:22:36;;;;;;;33.87;31.80;;;;;;;-141.22;100.00;65034.22;5031777;28;20474;-47
2022/12/08 08:25:06;;;;;;;30.00;28.27;;;;;;;-141.22;100.00;65034.22;5032087;28;20439;-47
2022/12/08 08:27:33;;;;;;;34.03;31.93;;;;;;;-141.22;100.00;65034.22;5032142;28;20466;-48
2022/12/08 08:30:01;;;;;;;34.47;31.80;;;;;;;-141.22;100.00;65034.22;5032083;28;20524;-46
2022/12/08 08:32:32;;;;;;;34.30;31.80;;;;;;;-141.22;100.00;65034.22;5031560;28;20551;-46
2022/12/08 08:35:00;;;;;;;32.83;31.10;;;;;;;-141.22;100.00;65034.22;5031622;28;20424;-45
2022/12/08 08:37:28;;;;;;;31.87;29.73;;;;;;;-141.22;100.00;65034.22;5031784;28;20458;-45
2022/12/08 08:39:56;;;;;;;34.10;31.40;;;;;;;-141.22;100.00;65034.22;5031823;28;20429;-45
2022/12/08 08:42:25;;;;;;;34.50;32.10;;;;;;;-141.22;100.00;65034.22;5031431;28;20472;-48
2022/12/08 08:44:52;;;;;;;35.43;32.80;;;;;;;-141.22;100.00;65034.22;5031402;28;20479;-45
2022/12/08 08:47:20;;;;;;;37.33;34.07;;;;;;;-141.22;100.00;65034.22;5031396;28;20997;-45
2022/12/08 08:49:48;;;;;;;36.13;33.13;;;;;;;-141.22;100.00;65034.22;5031953;28;20562;-46
2022/12/08 08:52:16;;;;;;;34.03;31.40;;;;;;;-141.22;100.00;65034.22;5031358;28;20475;-45
2022/12/08 08:54:43;;;;;;;36.33;33.57;;;;;;;-141.22;100.00;65034.22;5031524;28;20535;-44
2022/12/08 08:57:11;;;;;;;35.33;32.73;;;;;;;-141.22;100.00;65034.22;5015186;28;20996;-47
2022/12/08 08:59:40;;;;;;;35.50;32.80;;;;;;;-141.22;100.00;65034.22;5031946;28;20420;-47
2022/12/08 09:02:15;;;;;;;34.10;30.97;;;;;;;-141.22;100.00;65034.22;5032972;28;20486;-46
2022/12/08 09:04:43;;;;;;;34.63;31.43;;;;;;;-141.22;100.00;65034.22;5035934;28;20837;-45
2022/12/08 09:07:11;;;;;;;36.33;32.93;;;;;;;-141.22;100.00;65034.22;5035647;28;21022;-45
2022/12/08 09:09:39;;;;;;;35.20;32.50;;;;;;;-141.22;100.00;65034.22;5035864;28;20806;-46
2022/12/08 09:12:07;;;;;;;33.37;31.07;;;;;;;-141.22;100.00;65034.22;5035237;28;21026;-49
2022/12/08 09:14:35;;;;;;;34.70;32.03;;;;;;;-141.22;100.00;65034.22;5035374;28;20518;-45
2022/12/08 09:17:04;;;;;;;33.50;31.30;;;;;;;-141.22;100.00;65034.22;5035690;28;20462;-49
2022/12/08 09:19:32;;;;;;;31.93;30.03;;;;;;;-141.22;100.00;65034.22;5035751;28;20439;-47
2022/12/08 09:22:00;;;;;;;30.70;29.00;;;;;;;-141.22;100.00;65034.22;5035140;28;20489;-50
2022/12/08 09:24:27;;;;;;;30.77;28.97;;;;;;;-141.22;100.00;65034.22;5035252;28;20476;-46
2022/12/08 09:26:55;;;;;;;31.90;30.10;;;;;;;-141.22;100.00;65034.22;5035127;28;20993;-47
2022/12/08 09:29:23;;;;;;;32.20;30.50;;;;;;;-141.22;100.00;65034.22;5035540;28;20436;-46
2022/12/08 09:31:50;;;;;;;30.23;28.57;;;;;;;-141.22;100.00;65034.22;5034971;28;20464;-51
2022/12/08 09:34:19;;;;;;;30.17;28.57;;;;;;;-141.22;100.00;65034.22;5035186;28;20794;-49
2022/12/08 09:36:47;;;;;;;31.10;29.23;;;;;;;-141.22;100.00;65034.22;5035292;28;20456;-47
2022/12/08 09:39:14;;;;;;;30.50;28.80;;;;;;;-141.22;100.00;65034.22;5035389;28;20454;-47
2022/12/08 09:41:45;;;;;;;28.83;27.33;;;;;;;-141.22;100.00;65034.22;5034519;28;20432;-47
2022/12/08 09:44:56;;;;;;;29.40;27.90;;;;;;;-141.22;100.00;65034.22;5035035;28;20471;-46
2022/12/08 09:47:27;;;;;;;30.53;28.60;;;;;;;-141.22;100.00;65034.22;4973722;28;20489;-45
2022/12/08 09:50:10;;;;;;;30.70;28.80;;;;;;;-141.22;100.00;65034.22;5030337;28;20467;-49
2022/12/08 09:52:43;;;;;;;30.80;29.10;;;;;;;-141.22;100.00;65034.22;5058934;22;20471;-48
2022/12/08 09:55:20;;;;;;;30.57;28.77;;;;;;;-141.22;100.00;65034.22;5015539;28;20791;-46
2022/12/08 09:57:54;;;;;;;30.70;29.10;;;;;;;-141.22;100.00;65034.22;5023695;28;20434;-53
2022/12/08 10:00:23;;;;;;;30.40;28.80;;;;;;;-141.22;100.00;65034.22;5035735;28;20880;-45
2022/12/08 10:02:51;;;;;;;30.90;29.40;;;;;;;-141.22;100.00;65034.22;5035020;28;20478;-46
2022/12/08 10:05:22;;;;;;;32.07;30.07;;;;;;;-141.22;100.00;65034.22;5035463;28;20478;-48
2022/12/08 10:08:04;;;;;;;32.60;30.60;;;;;;;-141.22;100.00;65034.22;5035698;28;20436;-47
2022/12/08 10:10:39;;;;;;;31.13;29.33;;;;;;;-141.22;100.00;65034.22;5035347;28;20428;-46
2022/12/08 10:13:13;;;;;;;31.07;29.33;;;;;;;-141.22;100.00;65034.22;5033951;28;20498;-47
2022/12/08 10:15:46;;;;;;;30.30;28.70;;;;;;;-141.22;100.00;65034.22;5035251;28;20424;-47
2022/12/08 10:18:17;;;;;;;29.70;28.03;;;;;;;-141.22;100.00;65034.22;5035320;28;20439;-46
2022/12/08 10:20:48;;;;;;;30.40;28.90;;;;;;;-141.22;100.00;65034.22;5035236;28;20518;-46
2022/12/08 10:23:25;;;;;;;30.10;28.50;;;;;;;-141.22;100.00;65034.22;5033942;28;20464;-47
2022/12/08 10:26:00;;;;;;;28.20;26.90;;;;;;;-141.22;100.00;65034.22;5034666;28;20475;-46
2022/12/08 10:28:28;;;;;;;28.03;26.63;;;;;;;-141.22;100.00;65034.22;5034649;28;20442;-48
2022/12/08 10:30:55;;;;;;;28.63;27.33;;;;;;;-141.22;100.00;65034.22;5034722;28;20808;-45
2022/12/08 10:33:23;;;;;;;27.80;26.50;;;;;;;-141.22;100.00;65034.22;5034010;28;20472;-49
2022/12/08 10:35:55;;;;;;;28.83;27.53;;;;;;;-141.22;100.00;65034.22;5034270;28;20428;-48
2022/12/08 10:38:26;;;;;;;28.40;26.97;;;;;;;-141.22;100.00;65034.22;5034434;28;20495;-47
2022/12/08 10:41:03;;;;;;;28.70;27.10;;;;;;;-141.22;100.00;65034.22;5034295;28;20432;-47
2022/12/08 10:43:31;;;;;;;27.30;26.10;;;;;;;-141.22;100.00;65034.22;5033580;28;20463;-46
2022/12/08 10:46:10;;;;;;;28.50;26.80;;;;;;;-141.22;100.00;65034.22;5033875;28;20498;-46
2022/12/08 10:48:47;;;;;;;28.90;27.47;;;;;;;-141.22;100.00;65034.22;5034139;28;20447;-49
2022/12/08 10:51:26;;;;;;;27.50;26.20;;;;;;;-141.22;100.00;65034.22;5034090;28;20428;-49
2022/12/08 10:53:54;;;;;;;29.10;27.73;;;;;;;-141.22;100.00;65034.22;5033243;28;20452;-47
2022/12/08 10:56:25;;;;;;;29.37;27.80;;;;;;;-141.22;100.00;65034.22;5026672;28;20937;-45
2022/12/08 10:59:06;;;;;;;28.73;26.93;;;;;;;-141.22;100.00;65034.22;5031086;28;20902;-46
2022/12/08 11:01:37;;;;;;;59.67;53.83;;;;;;;-141.22;100.00;65034.22;5033376;28;20420;-50
2022/12/08 11:04:12;;;;;;;31.57;29.67;;;;;;;-141.22;100.00;65034.22;5033323;28;20953;-46
2022/12/08 11:06:42;;;;;;;29.30;28.00;;;;;;;-141.22;100.00;65034.22;5033574;28;20432;-47
2022/12/08 11:09:24;;;;;;;29.97;28.47;;;;;;;-141.22;100.00;65034.22;5033411;28;20434;-51
2022/12/08 11:11:55;;;;;;;29.30;27.80;;;;;;;-141.22;100.00;65034.22;5033175;28;20880;-48
2022/12/08 11:14:25;;;;;;;29.23;27.83;;;;;;;-141.22;100.00;65034.22;5033249;28;20455;-48